Thunder radar more information blitzortung!


Radar de pluja more information rain snow radar


Visita la nostra xarxa de llocs de meteo:

Template documentation
and downloads

And another site



No particular awareness of the weather is required.    There are no Weather-warnings

Pagina Historial Weather Underground text

Diari Resum May 30, 2017 Unitats:  Imperial    Mètric   Tant
« Previous Dia
SegĂźent Dia »
Diari Setmana Mensual Anual Personalitzada
  Maxima: Minima: Media:
Temperatura: 72.9 °F 59.5 °F 67.3 °F
Punt de rosada: 56.8 °F 45.7 °F 50.4 °F
Humitat: 78 % 43 % 55 %
Wind Speed: 9.2 mph 0 mph 3.3 mph
RĂ fegues de vent: 10 mph - -
Vent:- - East
Pression baro: 30.1 in 29.9 in -
Precipitacions: 0.04 in    
Historical Graphs
 
 
Dades de taula per May 30, 2017
Temps Temperatura Punt de rosada Pression baro Vent Wind Speed RĂ fegues de vent Humitat Rainfall Rate (Hourly)
00:00 67.8 °F 45.7 °F 30 in NE 2.3 mph   45 % 0 in
00:05 61.3 °F 46.4 °F 29.9 in WSW 1 mph 2 mph 58 % 0 in
00:15 61.7 °F 46.8 °F 29.9 in Calm   2 mph 58 % 0 in
00:25 61.7 °F 46.8 °F 29.9 in Calm     58 % 0 in
00:35 61.3 °F 46.4 °F 29.9 in Calm   1 mph 58 % 0 in
00:45 61.7 °F 47.1 °F 30 in WNW 1 mph 1 mph 59 % 0 in
00:55 61.7 °F 47.1 °F 30 in Calm     59 % 0 in
01:05 61.7 °F 47.1 °F 30 in NNE 1 mph 2 mph 59 % 0 in
01:15 61.5 °F 47.1 °F 30 in NNE 2 mph 3 mph 59 % 0 in
01:25 61.3 °F 46.9 °F 30 in NE 1 mph 3 mph 59 % 0 in
01:35 61.5 °F 46.6 °F 30 in NE 2 mph 2 mph 58 % 0 in
01:45 61.5 °F 46.6 °F 30 in NNE 1 mph 2 mph 58 % 0 in
01:55 61.2 °F 46.2 °F 30 in NE 2 mph 3 mph 58 % 0 in
02:05 61 °F 46 °F 30 in NE 2 mph 2 mph 58 % 0 in
02:15 61.2 °F 47.1 °F 30 in NNW 3 mph 3 mph 60 % 0 in
02:25 61.5 °F 47.5 °F 30 in NNE 1 mph 3 mph 60 % 0 in
02:35 61.2 °F 47.7 °F 30 in NNE 2 mph 3 mph 61 % 0 in
02:45 61 °F 47.8 °F 30 in Calm   3 mph 62 % 0 in
02:55 61.3 °F 48.2 °F 30 in SSE 2 mph 3 mph 62 % 0 in
03:05 61.3 °F 48.2 °F 30 in Calm   2 mph 62 % 0 in
03:15 61.3 °F 48.6 °F 30 in NNE 1 mph 2 mph 63 % 0 in
03:25 60.6 °F 49.3 °F 30 in NNE 3 mph 4 mph 66 % 0 in
03:35 60.1 °F 49.8 °F 30 in NNE 3 mph 4 mph 69 % 0 in
03:45 59.9 °F 50.2 °F 30 in NE 5 mph 6 mph 70 % 0 in
03:55 59.9 °F 52.3 °F 30 in NE 7 mph 10 mph 76 % 0 in
04:05 59.7 °F 51.8 °F 30 in NNE 1 mph 4 mph 75 % 0 in
04:15 59.5 °F 52.7 °F 30 in NW 1 mph 4 mph 78 % 0 in
04:25 59.9 °F 53.1 °F 30 in West 3 mph 4 mph 78 % 0.04 in
04:35 60.1 °F 52.9 °F 30 in NNE 1 mph 3 mph 77 % 0.04 in
04:45 60.8 °F 53.4 °F 30 in NNE 2 mph 3 mph 77 % 0 in
04:55 61.2 °F 54 °F 30 in NE 2 mph 5 mph 77 % 0 in
05:05 61.3 °F 54.3 °F 30 in NE 1 mph 3 mph 78 % 0 in
05:15 61.3 °F 54.1 °F 30 in North 1 mph 6 mph 77 % 0 in
05:25 61.3 °F 53.8 °F 30 in NNE 1 mph 2 mph 76 % 0 in
05:35 61.7 °F 54.1 °F 30 in NE 2 mph 3 mph 76 % 0 in
05:45 62.6 °F 54.1 °F 30 in NE 1 mph 4 mph 74 % 0 in
05:50 62.6 °F 54.1 °F 30 in NE 3 mph 5 mph 74 % 0 in
10:51 62.6 °F 53.8 °F 30 in NE 3.5 mph 3.8 mph 73 % 0.04 in
10:56 62.8 °F 54 °F 30 in East 3.8 mph 3.8 mph 73 % 0.04 in
11:01 63 °F 54.1 °F 30 in ENE 2.3 mph 2.3 mph 73 % 0.04 in
11:06 63.9 °F 55 °F 30 in ENE 2.6 mph   73 % 0 in
11:11 64.2 °F 55.4 °F 30 in ENE 3.5 mph 3.5 mph 73 % 0 in
11:12 64.4 °F 55.6 °F 30 in NNE 2.6 mph 2.9 mph 73 % 0 in
11:17 64.8 °F 55.6 °F 30 in NNE 4.6 mph 4.6 mph 72 % 0 in
11:22 65.7 °F 56.5 °F 30 in ENE 3.5 mph 3.5 mph 72 % 0 in
11:27 65.8 °F 56.1 °F 30 in WNW 5.8 mph 5.8 mph 71 % 0 in
11:32 66.6 °F 56.5 °F 30 in NE 3.5 mph 3.5 mph 70 % 0 in
11:37 66.7 °F 56.1 °F 30 in ENE 2.3 mph 2.6 mph 69 % 0 in
11:42 67.3 °F 56.8 °F 30 in NNW 3.5 mph 3.5 mph 69 % 0 in
11:47 67.3 °F 56.5 °F 30 in North 3.5 mph 3.5 mph 68 % 0 in
11:52 67.3 °F 56.5 °F 30 in ENE 5.8 mph 5.8 mph 68 % 0 in
11:57 67.5 °F 56.5 °F 30 in ENE 3.5 mph 3.5 mph 68 % 0 in
12:02 67.8 °F 56.5 °F 30 in ENE 2.3 mph 2.3 mph 67 % 0 in
12:07 68.2 °F 56.5 °F 30 in NNW 2.3 mph 2.3 mph 66 % 0 in
12:12 68.5 °F 55.9 °F 30 in NNE 2.3 mph 2.3 mph 64 % 0 in
12:17 69.1 °F 56.5 °F 30 in SW 4 mph 4 mph 64 % 0 in
12:22 69.6 °F 55.9 °F 30 in WSW 3.1 mph 3.1 mph 62 % 0 in
12:27 69.6 °F 55.9 °F 30 in NW 3.5 mph 3.5 mph 62 % 0 in
12:32 69.8 °F 55.2 °F 30 in WSW 2.4 mph   60 % 0 in
12:37 70.2 °F 55.2 °F 30 in West 2.3 mph 2.3 mph 59 % 0 in
12:42 70.3 °F 54.9 °F 30 in ESE 3.5 mph 3.5 mph 58 % 0 in
12:46 70.2 °F 54.7 °F 30 in ENE 2.3 mph 2.3 mph 58 % 0 in
12:51 69.6 °F 53.8 °F 30 in NE 4.6 mph 4.6 mph 57 % 0 in
12:56 69.6 °F 53.2 °F 30 in ENE 4.6 mph 4.6 mph 56 % 0 in
13:01 70 °F 54 °F 30 in SSE 2.6 mph 2.6 mph 57 % 0 in
13:06 70.2 °F 54.1 °F 30 in East 2.3 mph 2.3 mph 57 % 0 in
13:11 69.8 °F 53.4 °F 30 in East 4.9 mph 4.9 mph 56 % 0 in
13:16 69.6 °F 53.8 °F 30 in ESE 3.5 mph 3.5 mph 57 % 0 in
13:21 69.4 °F 53.1 °F 30 in ENE 3.5 mph 3.5 mph 56 % 0 in
13:26 69.4 °F 52.5 °F 30 in East 4.6 mph 4.6 mph 55 % 0 in
13:31 69.6 °F 51.6 °F 30 in ESE 5.8 mph 5.8 mph 53 % 0 in
13:36 69.6 °F 52.2 °F 30 in NE 4.6 mph 4.6 mph 54 % 0 in
13:41 69.6 °F 51.6 °F 30 in East 6.9 mph 6.9 mph 53 % 0 in
13:46 70 °F 52.2 °F 30 in SE 4.6 mph 4.6 mph 53 % 0 in
13:51 70.2 °F 51.6 °F 30 in East 5.8 mph 5.8 mph 52 % 0 in
13:56 70.5 °F 52 °F 30 in SSE 4.6 mph 4.6 mph 52 % 0 in
14:01 71.2 °F 52.7 °F 30 in ESE 4 mph 4 mph 52 % 0 in
14:06 70.9 °F 51.8 °F 30 in SSE 6.9 mph 6.9 mph 51 % 0 in
14:11 70.7 °F 51.1 °F 30 in East 5.8 mph 5.8 mph 50 % 0 in
14:16 70.7 °F 51.1 °F 30 in East 9.2 mph 9.2 mph 50 % 0 in
14:21 70.5 °F 50.4 °F 30 in ESE 8.1 mph 8.1 mph 49 % 0 in
14:26 70.3 °F 50.7 °F 30 in East 5.8 mph 5.8 mph 50 % 0 in
14:31 70.5 °F 51.1 °F 30 in East 5.8 mph 5.8 mph 50 % 0 in
14:36 70.7 °F 51.1 °F 30 in East 5.8 mph 5.8 mph 50 % 0 in
14:41 70.9 °F 51.8 °F 30 in ESE 3.8 mph 3.8 mph 51 % 0 in
14:46 71.1 °F 51.4 °F 30 in SE 5.8 mph 5.8 mph 50 % 0 in
14:51 71.4 °F 52.3 °F 30 in SSE 3.5 mph 3.5 mph 51 % 0 in
14:56 71.6 °F 52 °F 30 in SE 5.8 mph 5.8 mph 50 % 0 in
15:01 71.6 °F 52 °F 30 in SE 5.8 mph 5.8 mph 50 % 0 in
15:06 71.2 °F 51.6 °F 30 in SW 5.8 mph 5.8 mph 50 % 0 in
15:11 70.7 °F 50.5 °F 30 in East 4.6 mph 4.6 mph 49 % 0 in
15:16 70.7 °F 50.5 °F 30 in SE 4.6 mph 4.6 mph 49 % 0 in
15:21 71.2 °F 51.6 °F 30 in ESE 2.4 mph 2.4 mph 50 % 0 in
15:26 71.1 °F 50.9 °F 30 in ESE 5.4 mph 5.4 mph 49 % 0 in
15:31 70.9 °F 50.7 °F 30 in East 3.5 mph 3.5 mph 49 % 0 in
15:36 71.2 °F 51.1 °F 30 in SSE 2.4 mph 2.4 mph 49 % 0 in
15:41 72 °F 52.3 °F 30 in SW 3.5 mph 3.5 mph 50 % 0 in
15:46 72.1 °F 52.5 °F 30 in East 2.4 mph   50 % 0 in
15:52 71.8 °F 51.6 °F 30 in NE 4.6 mph 4.6 mph 49 % 0 in
15:57 71.8 °F 51.6 °F 30 in NE 3.5 mph 3.5 mph 49 % 0 in
16:02 71.8 °F 51.6 °F 30 in NE 3.1 mph 3.1 mph 49 % 0 in
16:07 71.6 °F 51.4 °F 30 in ENE 3.5 mph 3.5 mph 49 % 0 in
16:12 71.6 °F 51.4 °F 30 in ESE 6.9 mph 6.9 mph 49 % 0 in
16:17 71.6 °F 51.4 °F 30 in ESE 5.8 mph 5.8 mph 49 % 0 in
16:22 72.3 °F 52.2 °F 30 in SE 2.3 mph 2.3 mph 49 % 0 in
16:27 72.9 °F 52.5 °F 30 in SSE 2 mph 2 mph 49 % 0 in
16:32 72.7 °F 52.3 °F 30 in ESE 2.3 mph 2.3 mph 49 % 0 in
16:37 72.3 °F 52.2 °F 30 in NNE 7.6 mph 7.6 mph 49 % 0 in
16:42 72.1 °F 52 °F 30 in ENE 4.6 mph 4.6 mph 49 % 0 in
16:47 72.1 °F 52 °F 30 in NNE 5.8 mph 5.8 mph 49 % 0 in
16:52 72 °F 51.8 °F 30 in NE 5.8 mph 5.8 mph 49 % 0 in
16:57 72 °F 51.3 °F 30 in NNE 5.8 mph 5.8 mph 48 % 0 in
17:02 72 °F 51.3 °F 30 in NE 5.9 mph 5.9 mph 48 % 0 in
17:07 72.1 °F 50.7 °F 30 in East 4.6 mph 4.6 mph 47 % 0 in
17:12 72 °F 50.5 °F 30 in East 5.8 mph 5.8 mph 47 % 0 in
17:17 72.1 °F 50.7 °F 30 in NE 4.9 mph 4.9 mph 47 % 0 in
17:22 72.1 °F 50.7 °F 30 in NE 5.8 mph 5.8 mph 47 % 0 in
17:27 71.8 °F 50.5 °F 30 in ESE 4.6 mph 4.6 mph 47 % 0 in
17:32 71.8 °F 49.8 °F 30 in ESE 8.1 mph 8.1 mph 46 % 0 in
17:37 71.8 °F 49.8 °F 30 in SSE 5.8 mph 5.8 mph 46 % 0 in
17:42 72 °F 50 °F 30 in NE 8.1 mph 8.1 mph 46 % 0 in
17:47 72 °F 50.5 °F 30 in East 3.5 mph 3.5 mph 47 % 0 in
17:52 72.1 °F 50.2 °F 30 in East 4.6 mph 4.6 mph 46 % 0 in
17:57 72.3 °F 51.1 °F 30 in ESE 2.3 mph 2.3 mph 47 % 0 in
18:02 72.3 °F 50.4 °F 30 in ENE 2.4 mph 2.4 mph 46 % 0 in
18:07 72.5 °F 50.5 °F 30 in NNE 3.5 mph 3.5 mph 46 % 0 in
18:12 72.5 °F 50.5 °F 30 in ENE 3.5 mph 3.5 mph 46 % 0 in
18:17 72.7 °F 50.7 °F 30 in NE 5.8 mph 5.8 mph 46 % 0 in
18:22 72.7 °F 50.7 °F 30 in ESE 6.9 mph 6.9 mph 46 % 0 in
18:27 72.5 °F 50.5 °F 30 in NNE 5.8 mph 5.8 mph 46 % 0 in
18:32 72.5 °F 50.5 °F 30 in ENE 4.6 mph 4.6 mph 46 % 0 in
18:37 72.3 °F 50.4 °F 30 in ESE 4.6 mph 4.6 mph 46 % 0 in
18:42 72.1 °F 49.6 °F 30 in East 5.8 mph 5.8 mph 45 % 0 in
18:47 72.1 °F 49.6 °F 30 in ESE 4.6 mph 4.6 mph 45 % 0 in
18:52 72.1 °F 50.2 °F 30 in ENE 5.9 mph 5.9 mph 46 % 0 in
18:57 72.3 °F 49.8 °F 30 in ENE 4.6 mph 4.6 mph 45 % 0 in
19:02 72.3 °F 49.8 °F 30 in ENE 4.6 mph 4.6 mph 45 % 0 in
19:07 72.3 °F 49.8 °F 30 in East 5.8 mph 5.8 mph 45 % 0 in
19:12 72.3 °F 49.3 °F 30 in NNE 5.8 mph 5.8 mph 44 % 0 in
19:15 63.7 °F 48.2 °F 30.1 in Calm   2 mph 57 % 0 in
19:17 72.5 °F 49.3 °F 30 in ENE 6.4 mph 6.4 mph 44 % 0 in
19:22 72.5 °F 49.3 °F 30 in ESE 4.6 mph 4.6 mph 44 % 0 in
19:25 63.7 °F 48.6 °F 30 in Calm     58 % 0 in
19:27 72.3 °F 49.3 °F 30 in ENE 5.8 mph 5.8 mph 44 % 0 in
19:32 72.3 °F 49.3 °F 30 in ESE 4.9 mph 4.9 mph 44 % 0 in
19:35 63.3 °F 48.4 °F 30 in Calm     58 % 0 in
19:37 72.1 °F 48.9 °F 30 in East 6.9 mph 6.9 mph 44 % 0 in
19:42 72.1 °F 48.9 °F 30 in ENE 8.1 mph 8.1 mph 44 % 0 in
19:45 62.6 °F 48 °F 30.1 in WSW 2 mph 2 mph 59 % 0 in
19:47 72.1 °F 48.4 °F 30 in East 9.2 mph 9.2 mph 43 % 0 in
19:52 72 °F 48.2 °F 30 in SE 4.6 mph 4.6 mph 43 % 0 in
19:55 62.4 °F 48.7 °F 30.1 in Calm   3 mph 61 % 0 in
19:57 71.8 °F 48 °F 30 in ESE 6.9 mph 6.9 mph 43 % 0 in
20:02 71.8 °F 48 °F 30 in ESE 8.1 mph 8.1 mph 43 % 0 in
20:05 62.4 °F 48.7 °F 30.1 in Calm   1 mph 61 % 0 in
20:07 71.6 °F 47.8 °F 30 in ENE 6.9 mph 6.9 mph 43 % 0 in
20:12 71.6 °F 47.8 °F 30 in ESE 5.8 mph 5.8 mph 43 % 0 in
20:15 62.4 °F 49.3 °F 30.1 in Calm     62 % 0 in
20:17 71.4 °F 47.7 °F 30 in ESE 5.8 mph 5.8 mph 43 % 0 in
20:22 71.1 °F 48 °F 30 in ESE 4.6 mph 4.6 mph 44 % 0 in
20:24 71.1 °F 47.5 °F 30 in East 5.8 mph 5.8 mph 43 % 0 in
20:25 62.2 °F 49.1 °F 30.1 in Calm     62 % 0 in
20:29 70.7 °F 47.7 °F 30 in ESE 4.6 mph 4.6 mph 44 % 0 in
20:34 70.5 °F 47.5 °F 30 in ENE 2.3 mph 2.3 mph 44 % 0 in
20:35 61.9 °F 49.1 °F 30.1 in Calm   1 mph 63 % 0 in
20:39 70.3 °F 47.5 °F 30 in East 5.8 mph 5.8 mph 44 % 0 in
20:44 70.2 °F 47.8 °F 30 in East 5.8 mph 5.8 mph 45 % 0 in
20:45 61.9 °F 49.1 °F 30 in Calm   1 mph 63 % 0 in
20:49 70 °F 47.7 °F 30 in SE 5.8 mph 5.8 mph 45 % 0 in
20:54 69.8 °F 47.5 °F 30 in ESE 3.1 mph 3.1 mph 45 % 0 in
20:55 62.1 °F 49.3 °F 30.1 in Calm   2 mph 63 % 0 in
20:59 69.6 °F 47.8 °F 30 in SSE 3.5 mph 3.5 mph 46 % 0 in
21:04 69.3 °F 47.7 °F 30 in SE 4 mph 4 mph 46 % 0 in
21:05 61.9 °F 49.1 °F 30.1 in NNW 1 mph 2 mph 63 % 0 in
21:09 69.1 °F 47.5 °F 30 in ESE 3.5 mph 3.5 mph 46 % 0 in
21:14 68.9 °F 47.3 °F 30 in SSE 4.6 mph 4.6 mph 46 % 0 in
21:15 62.8 °F 49.1 °F 30.1 in NNW 2 mph 3 mph 61 % 0 in
21:19 68.7 °F 47.1 °F 30 in ESE 3.5 mph 3.5 mph 46 % 0 in
21:24 68.5 °F 46.9 °F 30 in Calm     46 % 0 in
21:25 62.8 °F 49.1 °F 30.1 in NNE 2 mph 3 mph 61 % 0 in
21:29 68.4 °F 47.3 °F 30 in ENE 1.2 mph 1.4 mph 47 % 0 in
21:34 68.2 °F 47.1 °F 30 in ENE 2.3 mph 2.3 mph 47 % 0 in
21:35 62.8 °F 49.1 °F 30.1 in NE 2 mph 3 mph 61 % 0 in
21:39 68 °F 46.9 °F 30 in NNE 1.2 mph 1.2 mph 47 % 0 in
21:44 67.8 °F 47.5 °F 30 in NNE 2.3 mph 2.3 mph 48 % 0 in
21:45 63 °F 49.6 °F 30.1 in NNE 3 mph 6 mph 62 % 0 in
21:49 67.5 °F 47.1 °F 30 in NNE 1.4 mph 1.4 mph 48 % 0 in
21:54 67.3 °F 46.9 °F 30 in NNE 2.3 mph 2.3 mph 48 % 0 in
21:55 62.8 °F 50 °F 30.1 in NNE 5 mph 5 mph 63 % 0 in
21:59 67.1 °F 46.8 °F 30 in Calm     48 % 0 in
22:04 66.9 °F 46.6 °F 30 in NNE 0.9 mph   48 % 0 in
22:05 62.6 °F 49.8 °F 30.1 in NE 5 mph 6 mph 63 % 0 in
22:09 66.6 °F 46.8 °F 30 in Calm     49 % 0 in
22:14 66.2 °F 46.6 °F 30 in North 1.2 mph   49 % 0 in
22:15 62.6 °F 49.8 °F 30.1 in NE 5 mph 5 mph 63 % 0 in
22:19 66 °F 46.8 °F 30 in Calm     50 % 0 in
22:24 65.8 °F 46.8 °F 30.1 in Calm     50 % 0 in
22:25 62.4 °F 50.2 °F 30.1 in NE 3 mph 5 mph 64 % 0 in
22:29 65.7 °F 46.6 °F 30.1 in NNE 2.3 mph 2.3 mph 50 % 0 in
22:34 65.8 °F 47.1 °F 30.1 in NNE 3.5 mph 3.5 mph 51 % 0 in
22:35 62.2 °F 49.8 °F 30.1 in NNE 2 mph 6 mph 64 % 0 in
22:39 66 °F 47.5 °F 30.1 in NNE 2.3 mph 2.3 mph 51 % 0 in
22:44 66 °F 47.5 °F 30.1 in NE 2.3 mph 2.3 mph 51 % 0 in
22:45 62.1 °F 49.6 °F 30.1 in NNE 2 mph 5 mph 64 % 0 in
22:49 66 °F 47.5 °F 30.1 in NE 2.4 mph 2.4 mph 51 % 0 in
22:54 65.8 °F 47.1 °F 30.1 in NNE 3.5 mph 3.5 mph 51 % 0 in
22:55 61.9 °F 49.6 °F 30.1 in NNE 2 mph 3 mph 64 % 0 in
22:59 65.8 °F 47.1 °F 30.1 in NNE 2.3 mph 2.3 mph 51 % 0 in
23:04 65.7 °F 47.5 °F 30.1 in NE 1.4 mph 1.4 mph 52 % 0 in
23:05 61.9 °F 49.6 °F 30.1 in NE 2 mph 4 mph 64 % 0 in
23:09 65.5 °F 47.5 °F 30.1 in NNE 1.2 mph 1.2 mph 52 % 0 in
23:14 65.3 °F 47.1 °F 30.1 in NNW 0.9 mph   52 % 0 in
23:15 61.9 °F 49.1 °F 30.1 in NNE 1 mph 4 mph 63 % 0 in
23:19 65.3 °F 47.7 °F 30.1 in NNE 1.2 mph 1.2 mph 53 % 0 in
23:24 65.3 °F 47.7 °F 30.1 in NE 1.2 mph   53 % 0 in
23:25 61.2 °F 48.9 °F 30.1 in West 1 mph 3 mph 64 % 0 in
23:29 65.1 °F 48 °F 30.1 in Calm     54 % 0 in
23:34 65.1 °F 48 °F 30.1 in Calm     54 % 0 in
23:35 61 °F 48.7 °F 30.1 in WSW 1 mph 2 mph 64 % 0 in
23:39 64.9 °F 47.8 °F 30 in NNE 1.2 mph   54 % 0 in
23:44 64.8 °F 48.2 °F 30 in NNE 1.2 mph   55 % 0 in
23:45 61 °F 48.7 °F 30.1 in West 1 mph 2 mph 64 % 0 in
23:49 64.6 °F 48 °F 30 in Calm     55 % 0 in
23:54 64.4 °F 48.4 °F 30.1 in NW 1.2 mph   56 % 0 in
23:55 60.4 °F 48.6 °F 30.1 in WSW 1 mph 2 mph 65 % 0 in
23:59 64.2 °F 48.2 °F 30.1 in Calm     56 % 0 in
Meteo Sesrovires
Elogis d' Weather Underground - 3.75 mb

Guio original per  Jim McMurry - jmcmurry@mwt.net Adaptat per a la plantilla per  Wim van der Kuil - Leuven-Template.eu

Trobareu la nostra informacio del temps tambe a:

Weather Underground

AWEKAS